sensor_id;sensor_type;location;lat;lon;timestamp;P1;durP1;ratioP1;P2;durP2;ratioP2
51438;SDS011;38816;51.142;-0.974;2023-04-29T00:01:03;33.03;;;20.08;;
51438;SDS011;38816;51.142;-0.974;2023-04-29T00:03:29;34.00;;;19.08;;
51438;SDS011;38816;51.142;-0.974;2023-04-29T00:05:56;28.55;;;18.55;;
51438;SDS011;38816;51.142;-0.974;2023-04-29T00:08:23;33.28;;;18.92;;
51438;SDS011;38816;51.142;-0.974;2023-04-29T00:10:48;30.33;;;18.00;;
51438;SDS011;38816;51.142;-0.974;2023-04-29T00:13:14;31.83;;;18.90;;
51438;SDS011;38816;51.142;-0.974;2023-04-29T00:15:40;27.75;;;18.15;;
51438;SDS011;38816;51.142;-0.974;2023-04-29T00:18:06;26.23;;;17.17;;
51438;SDS011;38816;51.142;-0.974;2023-04-29T00:20:31;26.13;;;17.55;;
51438;SDS011;38816;51.142;-0.974;2023-04-29T00:22:57;28.70;;;16.60;;
51438;SDS011;38816;51.142;-0.974;2023-04-29T00:25:22;26.23;;;15.80;;
51438;SDS011;38816;51.142;-0.974;2023-04-29T00:27:47;25.98;;;16.77;;
51438;SDS011;38816;51.142;-0.974;2023-04-29T00:30:13;26.63;;;15.52;;
51438;SDS011;38816;51.142;-0.974;2023-04-29T00:32:38;26.95;;;17.00;;
51438;SDS011;38816;51.142;-0.974;2023-04-29T00:35:04;23.13;;;15.25;;
51438;SDS011;38816;51.142;-0.974;2023-04-29T00:37:31;28.23;;;17.48;;
51438;SDS011;38816;51.142;-0.974;2023-04-29T00:39:57;25.50;;;17.67;;
51438;SDS011;38816;51.142;-0.974;2023-04-29T00:42:22;31.23;;;17.38;;
51438;SDS011;38816;51.142;-0.974;2023-04-29T00:44:48;23.30;;;16.08;;
51438;SDS011;38816;51.142;-0.974;2023-04-29T00:47:13;28.52;;;17.30;;
51438;SDS011;38816;51.142;-0.974;2023-04-29T00:49:38;27.02;;;15.95;;
51438;SDS011;38816;51.142;-0.974;2023-04-29T00:52:04;25.08;;;15.15;;
51438;SDS011;38816;51.142;-0.974;2023-04-29T00:54:32;26.70;;;16.85;;
51438;SDS011;38816;51.142;-0.974;2023-04-29T00:56:59;27.90;;;16.52;;
51438;SDS011;38816;51.142;-0.974;2023-04-29T00:59:27;25.55;;;15.82;;
51438;SDS011;38816;51.142;-0.974;2023-04-29T01:01:57;25.48;;;15.57;;
51438;SDS011;38816;51.142;-0.974;2023-04-29T01:04:24;25.75;;;15.00;;
51438;SDS011;38816;51.142;-0.974;2023-04-29T01:12:16;24.20;;;15.68;;
51438;SDS011;38816;51.142;-0.974;2023-04-29T01:17:40;27.45;;;15.95;;
51438;SDS011;38816;51.142;-0.974;2023-04-29T01:20:08;25.33;;;16.10;;
51438;SDS011;38816;51.142;-0.974;2023-04-29T01:22:35;25.40;;;15.95;;
51438;SDS011;38816;51.142;-0.974;2023-04-29T01:25:01;25.58;;;16.08;;
51438;SDS011;38816;51.142;-0.974;2023-04-29T01:27:35;25.30;;;15.98;;
51438;SDS011;38816;51.142;-0.974;2023-04-29T01:32:41;28.10;;;16.73;;
51438;SDS011;38816;51.142;-0.974;2023-04-29T01:41:07;29.10;;;16.80;;
51438;SDS011;38816;51.142;-0.974;2023-04-29T01:43:36;28.55;;;16.77;;
51438;SDS011;38816;51.142;-0.974;2023-04-29T01:46:05;35.85;;;18.10;;
51438;SDS011;38816;51.142;-0.974;2023-04-29T01:48:33;28.98;;;17.27;;
51438;SDS011;38816;51.142;-0.974;2023-04-29T01:50:58;31.65;;;17.75;;
51438;SDS011;38816;51.142;-0.974;2023-04-29T01:53:24;27.42;;;17.02;;
51438;SDS011;38816;51.142;-0.974;2023-04-29T01:55:49;32.80;;;18.17;;
51438;SDS011;38816;51.142;-0.974;2023-04-29T01:58:14;34.47;;;19.75;;
51438;SDS011;38816;51.142;-0.974;2023-04-29T02:00:40;33.47;;;19.67;;
51438;SDS011;38816;51.142;-0.974;2023-04-29T02:03:06;38.33;;;19.60;;
51438;SDS011;38816;51.142;-0.974;2023-04-29T02:05:31;34.50;;;19.77;;
51438;SDS011;38816;51.142;-0.974;2023-04-29T02:07:58;35.05;;;20.88;;
51438;SDS011;38816;51.142;-0.974;2023-04-29T02:10:24;34.05;;;20.33;;
51438;SDS011;38816;51.142;-0.974;2023-04-29T02:12:50;34.53;;;18.60;;
51438;SDS011;38816;51.142;-0.974;2023-04-29T02:15:15;35.33;;;20.55;;
51438;SDS011;38816;51.142;-0.974;2023-04-29T02:17:41;33.72;;;20.77;;
51438;SDS011;38816;51.142;-0.974;2023-04-29T02:20:07;32.90;;;19.67;;
51438;SDS011;38816;51.142;-0.974;2023-04-29T02:22:34;36.72;;;21.42;;
51438;SDS011;38816;51.142;-0.974;2023-04-29T02:24:59;36.45;;;21.13;;
51438;SDS011;38816;51.142;-0.974;2023-04-29T02:27:25;37.65;;;20.88;;
51438;SDS011;38816;51.142;-0.974;2023-04-29T02:29:50;32.17;;;19.63;;
51438;SDS011;38816;51.142;-0.974;2023-04-29T02:32:16;34.75;;;20.25;;
51438;SDS011;38816;51.142;-0.974;2023-04-29T02:34:44;31.73;;;20.00;;
51438;SDS011;38816;51.142;-0.974;2023-04-29T02:37:10;37.38;;;21.33;;
51438;SDS011;38816;51.142;-0.974;2023-04-29T02:39:35;33.38;;;19.95;;
51438;SDS011;38816;51.142;-0.974;2023-04-29T02:42:00;37.10;;;21.13;;
51438;SDS011;38816;51.142;-0.974;2023-04-29T02:44:26;35.97;;;21.02;;
51438;SDS011;38816;51.142;-0.974;2023-04-29T02:46:52;32.38;;;20.42;;
51438;SDS011;38816;51.142;-0.974;2023-04-29T02:49:17;37.83;;;22.10;;
51438;SDS011;38816;51.142;-0.974;2023-04-29T02:51:43;41.50;;;21.70;;
51438;SDS011;38816;51.142;-0.974;2023-04-29T02:54:08;38.30;;;21.95;;
51438;SDS011;38816;51.142;-0.974;2023-04-29T02:56:35;34.83;;;20.98;;
51438;SDS011;38816;51.142;-0.974;2023-04-29T02:59:01;38.03;;;20.80;;
51438;SDS011;38816;51.142;-0.974;2023-04-29T03:01:26;38.58;;;20.15;;
51438;SDS011;38816;51.142;-0.974;2023-04-29T03:03:51;30.77;;;20.08;;
51438;SDS011;38816;51.142;-0.974;2023-04-29T03:06:17;33.60;;;20.10;;
51438;SDS011;38816;51.142;-0.974;2023-04-29T03:08:43;34.95;;;20.05;;
51438;SDS011;38816;51.142;-0.974;2023-04-29T03:11:08;35.00;;;20.27;;
51438;SDS011;38816;51.142;-0.974;2023-04-29T03:13:33;32.10;;;20.05;;
51438;SDS011;38816;51.142;-0.974;2023-04-29T03:15:59;33.72;;;20.17;;
51438;SDS011;38816;51.142;-0.974;2023-04-29T03:18:25;35.20;;;20.05;;
51438;SDS011;38816;51.142;-0.974;2023-04-29T03:20:50;32.80;;;19.65;;
51438;SDS011;38816;51.142;-0.974;2023-04-29T03:23:15;33.67;;;20.42;;
51438;SDS011;38816;51.142;-0.974;2023-04-29T03:25:41;35.25;;;19.65;;
51438;SDS011;38816;51.142;-0.974;2023-04-29T03:28:06;32.75;;;20.13;;
51438;SDS011;38816;51.142;-0.974;2023-04-29T03:30:31;31.38;;;19.25;;
51438;SDS011;38816;51.142;-0.974;2023-04-29T03:32:57;30.55;;;19.02;;
51438;SDS011;38816;51.142;-0.974;2023-04-29T03:35:22;33.40;;;19.40;;
51438;SDS011;38816;51.142;-0.974;2023-04-29T03:37:48;37.67;;;19.42;;
51438;SDS011;38816;51.142;-0.974;2023-04-29T03:40:13;29.67;;;19.00;;
51438;SDS011;38816;51.142;-0.974;2023-04-29T03:42:38;35.60;;;20.20;;
51438;SDS011;38816;51.142;-0.974;2023-04-29T03:45:04;34.22;;;20.17;;
51438;SDS011;38816;51.142;-0.974;2023-04-29T03:47:30;38.22;;;20.27;;
51438;SDS011;38816;51.142;-0.974;2023-04-29T03:49:55;35.08;;;20.50;;
51438;SDS011;38816;51.142;-0.974;2023-04-29T03:52:21;36.20;;;21.17;;
51438;SDS011;38816;51.142;-0.974;2023-04-29T03:54:46;35.22;;;21.05;;
51438;SDS011;38816;51.142;-0.974;2023-04-29T03:57:12;35.20;;;21.25;;
51438;SDS011;38816;51.142;-0.974;2023-04-29T03:59:37;33.97;;;21.50;;
51438;SDS011;38816;51.142;-0.974;2023-04-29T04:02:05;33.58;;;19.52;;
51438;SDS011;38816;51.142;-0.974;2023-04-29T04:04:31;37.13;;;21.73;;
51438;SDS011;38816;51.142;-0.974;2023-04-29T04:06:56;33.40;;;21.05;;
51438;SDS011;38816;51.142;-0.974;2023-04-29T04:09:22;32.17;;;20.92;;
51438;SDS011;38816;51.142;-0.974;2023-04-29T04:11:47;30.77;;;20.48;;
51438;SDS011;38816;51.142;-0.974;2023-04-29T04:14:13;29.83;;;19.23;;
51438;SDS011;38816;51.142;-0.974;2023-04-29T04:16:38;33.28;;;21.00;;
51438;SDS011;38816;51.142;-0.974;2023-04-29T04:19:03;35.08;;;21.25;;
51438;SDS011;38816;51.142;-0.974;2023-04-29T04:21:29;39.35;;;21.90;;
51438;SDS011;38816;51.142;-0.974;2023-04-29T04:23:55;34.72;;;22.02;;
51438;SDS011;38816;51.142;-0.974;2023-04-29T04:26:21;34.40;;;21.02;;
51438;SDS011;38816;51.142;-0.974;2023-04-29T04:28:47;34.92;;;21.10;;
51438;SDS011;38816;51.142;-0.974;2023-04-29T04:31:12;32.58;;;21.67;;
51438;SDS011;38816;51.142;-0.974;2023-04-29T04:33:39;38.60;;;23.05;;
51438;SDS011;38816;51.142;-0.974;2023-04-29T04:36:05;35.60;;;22.42;;
51438;SDS011;38816;51.142;-0.974;2023-04-29T04:38:30;34.40;;;21.55;;
51438;SDS011;38816;51.142;-0.974;2023-04-29T04:40:57;39.75;;;21.25;;
51438;SDS011;38816;51.142;-0.974;2023-04-29T04:43:22;32.28;;;20.10;;
51438;SDS011;38816;51.142;-0.974;2023-04-29T04:45:48;34.55;;;21.92;;
51438;SDS011;38816;51.142;-0.974;2023-04-29T04:48:13;38.95;;;22.48;;
51438;SDS011;38816;51.142;-0.974;2023-04-29T04:50:38;29.85;;;21.67;;
51438;SDS011;38816;51.142;-0.974;2023-04-29T04:53:04;33.78;;;22.35;;
51438;SDS011;38816;51.142;-0.974;2023-04-29T04:55:30;33.90;;;21.83;;
51438;SDS011;38816;51.142;-0.974;2023-04-29T04:57:57;34.35;;;21.10;;
51438;SDS011;38816;51.142;-0.974;2023-04-29T05:00:22;33.50;;;20.98;;
51438;SDS011;38816;51.142;-0.974;2023-04-29T05:02:48;36.85;;;21.52;;
51438;SDS011;38816;51.142;-0.974;2023-04-29T05:05:13;38.95;;;22.65;;
51438;SDS011;38816;51.142;-0.974;2023-04-29T05:07:38;42.97;;;22.70;;
51438;SDS011;38816;51.142;-0.974;2023-04-29T05:10:04;39.67;;;23.33;;
51438;SDS011;38816;51.142;-0.974;2023-04-29T05:12:30;38.92;;;23.95;;
51438;SDS011;38816;51.142;-0.974;2023-04-29T05:14:56;34.10;;;22.48;;
51438;SDS011;38816;51.142;-0.974;2023-04-29T05:17:22;39.45;;;24.33;;
51438;SDS011;38816;51.142;-0.974;2023-04-29T05:19:47;40.83;;;24.65;;
51438;SDS011;38816;51.142;-0.974;2023-04-29T05:22:13;46.13;;;26.58;;
51438;SDS011;38816;51.142;-0.974;2023-04-29T05:24:38;48.90;;;26.85;;
51438;SDS011;38816;51.142;-0.974;2023-04-29T05:27:03;50.15;;;27.27;;
51438;SDS011;38816;51.142;-0.974;2023-04-29T05:29:29;49.70;;;28.88;;
51438;SDS011;38816;51.142;-0.974;2023-04-29T05:31:55;45.47;;;27.48;;
51438;SDS011;38816;51.142;-0.974;2023-04-29T05:34:20;45.67;;;28.30;;
51438;SDS011;38816;51.142;-0.974;2023-04-29T05:36:45;50.17;;;28.67;;
51438;SDS011;38816;51.142;-0.974;2023-04-29T05:39:11;47.30;;;28.25;;
51438;SDS011;38816;51.142;-0.974;2023-04-29T05:41:36;53.10;;;29.77;;
51438;SDS011;38816;51.142;-0.974;2023-04-29T05:44:01;49.90;;;29.17;;
51438;SDS011;38816;51.142;-0.974;2023-04-29T05:46:27;51.45;;;29.50;;
51438;SDS011;38816;51.142;-0.974;2023-04-29T05:48:52;55.97;;;29.83;;
51438;SDS011;38816;51.142;-0.974;2023-04-29T05:51:18;48.30;;;29.63;;
51438;SDS011;38816;51.142;-0.974;2023-04-29T05:53:44;49.80;;;29.63;;
51438;SDS011;38816;51.142;-0.974;2023-04-29T05:56:09;47.67;;;29.83;;
51438;SDS011;38816;51.142;-0.974;2023-04-29T05:58:35;60.35;;;31.27;;
51438;SDS011;38816;51.142;-0.974;2023-04-29T06:01:00;54.83;;;31.80;;
51438;SDS011;38816;51.142;-0.974;2023-04-29T06:03:27;60.08;;;33.53;;
51438;SDS011;38816;51.142;-0.974;2023-04-29T06:05:52;56.13;;;35.70;;
51438;SDS011;38816;51.142;-0.974;2023-04-29T06:08:19;59.47;;;34.80;;
51438;SDS011;38816;51.142;-0.974;2023-04-29T06:10:44;66.75;;;36.70;;
51438;SDS011;38816;51.142;-0.974;2023-04-29T06:13:10;54.25;;;33.20;;
51438;SDS011;38816;51.142;-0.974;2023-04-29T06:15:36;57.17;;;35.28;;
51438;SDS011;38816;51.142;-0.974;2023-04-29T06:18:01;56.90;;;36.05;;
51438;SDS011;38816;51.142;-0.974;2023-04-29T06:20:27;59.53;;;36.17;;
51438;SDS011;38816;51.142;-0.974;2023-04-29T06:22:52;50.28;;;34.55;;
51438;SDS011;38816;51.142;-0.974;2023-04-29T06:25:18;49.00;;;33.97;;
51438;SDS011;38816;51.142;-0.974;2023-04-29T06:27:43;44.67;;;33.80;;
51438;SDS011;38816;51.142;-0.974;2023-04-29T06:30:09;45.90;;;33.17;;
51438;SDS011;38816;51.142;-0.974;2023-04-29T06:32:35;45.85;;;33.58;;
51438;SDS011;38816;51.142;-0.974;2023-04-29T06:35:01;45.67;;;34.05;;
51438;SDS011;38816;51.142;-0.974;2023-04-29T06:37:27;47.00;;;33.00;;
51438;SDS011;38816;51.142;-0.974;2023-04-29T06:39:52;44.85;;;34.13;;
51438;SDS011;38816;51.142;-0.974;2023-04-29T06:42:18;45.45;;;34.78;;
51438;SDS011;38816;51.142;-0.974;2023-04-29T06:44:43;52.50;;;37.47;;
51438;SDS011;38816;51.142;-0.974;2023-04-29T06:47:08;59.28;;;38.13;;
51438;SDS011;38816;51.142;-0.974;2023-04-29T06:49:34;57.25;;;38.33;;
51438;SDS011;38816;51.142;-0.974;2023-04-29T06:51:59;55.40;;;39.08;;
51438;SDS011;38816;51.142;-0.974;2023-04-29T06:54:26;56.25;;;38.10;;
51438;SDS011;38816;51.142;-0.974;2023-04-29T06:56:52;55.10;;;37.42;;
51438;SDS011;38816;51.142;-0.974;2023-04-29T06:59:18;50.60;;;34.08;;
51438;SDS011;38816;51.142;-0.974;2023-04-29T07:01:43;46.30;;;32.75;;
51438;SDS011;38816;51.142;-0.974;2023-04-29T07:04:09;41.45;;;30.10;;
51438;SDS011;38816;51.142;-0.974;2023-04-29T07:06:34;43.13;;;30.48;;
51438;SDS011;38816;51.142;-0.974;2023-04-29T07:09:00;42.80;;;29.98;;
51438;SDS011;38816;51.142;-0.974;2023-04-29T07:11:26;45.95;;;29.92;;
51438;SDS011;38816;51.142;-0.974;2023-04-29T07:13:51;45.47;;;29.40;;
51438;SDS011;38816;51.142;-0.974;2023-04-29T07:16:17;46.25;;;29.25;;
51438;SDS011;38816;51.142;-0.974;2023-04-29T07:18:45;44.45;;;28.15;;
51438;SDS011;38816;51.142;-0.974;2023-04-29T07:21:11;40.85;;;27.20;;
51438;SDS011;38816;51.142;-0.974;2023-04-29T07:23:37;42.05;;;27.20;;
51438;SDS011;38816;51.142;-0.974;2023-04-29T07:26:12;48.08;;;26.73;;
51438;SDS011;38816;51.142;-0.974;2023-04-29T07:28:38;40.53;;;24.58;;
51438;SDS011;38816;51.142;-0.974;2023-04-29T07:31:04;38.70;;;24.30;;
51438;SDS011;38816;51.142;-0.974;2023-04-29T07:33:31;39.08;;;23.75;;
51438;SDS011;38816;51.142;-0.974;2023-04-29T07:35:57;36.38;;;23.30;;
51438;SDS011;38816;51.142;-0.974;2023-04-29T07:38:22;39.78;;;23.65;;
51438;SDS011;38816;51.142;-0.974;2023-04-29T07:40:47;35.08;;;22.27;;
51438;SDS011;38816;51.142;-0.974;2023-04-29T07:43:13;37.42;;;23.40;;
51438;SDS011;38816;51.142;-0.974;2023-04-29T07:45:38;38.67;;;22.77;;
51438;SDS011;38816;51.142;-0.974;2023-04-29T07:48:04;35.05;;;21.52;;
51438;SDS011;38816;51.142;-0.974;2023-04-29T07:50:30;39.05;;;22.70;;
51438;SDS011;38816;51.142;-0.974;2023-04-29T07:52:58;35.20;;;23.17;;
51438;SDS011;38816;51.142;-0.974;2023-04-29T07:55:26;35.28;;;21.90;;
51438;SDS011;38816;51.142;-0.974;2023-04-29T07:57:51;39.15;;;23.73;;
51438;SDS011;38816;51.142;-0.974;2023-04-29T08:00:17;35.60;;;23.73;;
51438;SDS011;38816;51.142;-0.974;2023-04-29T08:02:43;37.00;;;23.77;;
51438;SDS011;38816;51.142;-0.974;2023-04-29T08:05:09;34.13;;;21.98;;
51438;SDS011;38816;51.142;-0.974;2023-04-29T08:07:34;35.50;;;22.23;;
51438;SDS011;38816;51.142;-0.974;2023-04-29T08:10:00;35.80;;;22.90;;
51438;SDS011;38816;51.142;-0.974;2023-04-29T08:12:25;36.20;;;21.80;;
51438;SDS011;38816;51.142;-0.974;2023-04-29T08:14:50;34.88;;;21.67;;
51438;SDS011;38816;51.142;-0.974;2023-04-29T08:17:16;41.78;;;22.70;;
51438;SDS011;38816;51.142;-0.974;2023-04-29T08:19:41;35.45;;;21.98;;
51438;SDS011;38816;51.142;-0.974;2023-04-29T08:22:07;33.78;;;19.95;;
51438;SDS011;38816;51.142;-0.974;2023-04-29T08:24:32;31.80;;;20.23;;
51438;SDS011;38816;51.142;-0.974;2023-04-29T08:26:59;30.52;;;19.70;;
51438;SDS011;38816;51.142;-0.974;2023-04-29T08:29:25;30.10;;;20.27;;
51438;SDS011;38816;51.142;-0.974;2023-04-29T08:31:50;31.52;;;20.10;;
51438;SDS011;38816;51.142;-0.974;2023-04-29T08:34:16;29.77;;;20.40;;
51438;SDS011;38816;51.142;-0.974;2023-04-29T08:36:41;29.55;;;19.70;;
51438;SDS011;38816;51.142;-0.974;2023-04-29T08:39:07;30.08;;;18.95;;
51438;SDS011;38816;51.142;-0.974;2023-04-29T08:41:32;29.92;;;19.08;;
51438;SDS011;38816;51.142;-0.974;2023-04-29T08:43:58;31.25;;;19.40;;
51438;SDS011;38816;51.142;-0.974;2023-04-29T08:46:24;28.92;;;20.15;;
51438;SDS011;38816;51.142;-0.974;2023-04-29T08:48:50;30.27;;;20.80;;
51438;SDS011;38816;51.142;-0.974;2023-04-29T08:51:16;29.73;;;18.20;;
51438;SDS011;38816;51.142;-0.974;2023-04-29T08:53:42;26.40;;;18.17;;
51438;SDS011;38816;51.142;-0.974;2023-04-29T08:56:08;29.70;;;19.23;;
51438;SDS011;38816;51.142;-0.974;2023-04-29T08:58:40;26.80;;;18.92;;
51438;SDS011;38816;51.142;-0.974;2023-04-29T09:01:07;27.20;;;18.42;;
51438;SDS011;38816;51.142;-0.974;2023-04-29T09:03:36;24.75;;;17.88;;
51438;SDS011;38816;51.142;-0.974;2023-04-29T09:06:09;25.48;;;17.15;;
51438;SDS011;38816;51.142;-0.974;2023-04-29T09:08:35;23.00;;;17.35;;
51438;SDS011;38816;51.142;-0.974;2023-04-29T09:11:01;24.80;;;18.92;;
51438;SDS011;38816;51.142;-0.974;2023-04-29T09:13:29;28.15;;;19.42;;
51438;SDS011;38816;51.142;-0.974;2023-04-29T09:15:55;25.17;;;18.95;;
51438;SDS011;38816;51.142;-0.974;2023-04-29T09:21:23;22.40;;;16.70;;
51438;SDS011;38816;51.142;-0.974;2023-04-29T09:23:54;24.10;;;17.17;;
51438;SDS011;38816;51.142;-0.974;2023-04-29T09:26:21;24.17;;;18.30;;
51438;SDS011;38816;51.142;-0.974;2023-04-29T09:29:07;22.58;;;18.67;;
51438;SDS011;38816;51.142;-0.974;2023-04-29T09:31:38;24.63;;;19.08;;
51438;SDS011;38816;51.142;-0.974;2023-04-29T09:34:05;25.27;;;20.10;;
51438;SDS011;38816;51.142;-0.974;2023-04-29T09:36:43;25.33;;;20.23;;
51438;SDS011;38816;51.142;-0.974;2023-04-29T09:44:27;21.40;;;18.90;;
51438;SDS011;38816;51.142;-0.974;2023-04-29T09:46:58;26.85;;;20.08;;
51438;SDS011;38816;51.142;-0.974;2023-04-29T09:49:33;24.45;;;19.70;;
51438;SDS011;38816;51.142;-0.974;2023-04-29T09:52:03;24.60;;;20.73;;
51438;SDS011;38816;51.142;-0.974;2023-04-29T09:54:30;24.42;;;21.95;;
51438;SDS011;38816;51.142;-0.974;2023-04-29T09:56:57;25.90;;;23.13;;
51438;SDS011;38816;51.142;-0.974;2023-04-29T09:59:24;25.95;;;23.35;;
51438;SDS011;38816;51.142;-0.974;2023-04-29T10:01:53;26.90;;;24.05;;
51438;SDS011;38816;51.142;-0.974;2023-04-29T10:04:22;26.58;;;23.60;;
51438;SDS011;38816;51.142;-0.974;2023-04-29T10:06:49;24.55;;;22.05;;
51438;SDS011;38816;51.142;-0.974;2023-04-29T10:09:17;23.05;;;20.63;;
51438;SDS011;38816;51.142;-0.974;2023-04-29T10:11:44;23.95;;;21.63;;
51438;SDS011;38816;51.142;-0.974;2023-04-29T10:14:11;24.42;;;21.95;;
51438;SDS011;38816;51.142;-0.974;2023-04-29T10:16:49;26.33;;;23.67;;
51438;SDS011;38816;51.142;-0.974;2023-04-29T10:19:33;28.10;;;25.60;;
51438;SDS011;38816;51.142;-0.974;2023-04-29T10:22:06;29.50;;;26.70;;
51438;SDS011;38816;51.142;-0.974;2023-04-29T10:24:37;26.50;;;24.13;;
51438;SDS011;38816;51.142;-0.974;2023-04-29T10:27:06;29.27;;;26.77;;
51438;SDS011;38816;51.142;-0.974;2023-04-29T10:29:33;30.65;;;28.13;;
51438;SDS011;38816;51.142;-0.974;2023-04-29T10:32:01;28.77;;;26.38;;
51438;SDS011;38816;51.142;-0.974;2023-04-29T10:34:28;31.83;;;29.27;;
51438;SDS011;38816;51.142;-0.974;2023-04-29T10:36:54;31.20;;;28.70;;
51438;SDS011;38816;51.142;-0.974;2023-04-29T10:39:23;33.25;;;30.73;;
51438;SDS011;38816;51.142;-0.974;2023-04-29T10:41:55;32.40;;;29.90;;
51438;SDS011;38816;51.142;-0.974;2023-04-29T10:44:21;33.60;;;31.20;;
51438;SDS011;38816;51.142;-0.974;2023-04-29T10:46:48;37.20;;;34.40;;
51438;SDS011;38816;51.142;-0.974;2023-04-29T10:49:13;37.08;;;34.08;;
51438;SDS011;38816;51.142;-0.974;2023-04-29T10:51:40;39.22;;;36.17;;
51438;SDS011;38816;51.142;-0.974;2023-04-29T10:54:09;38.03;;;35.03;;
51438;SDS011;38816;51.142;-0.974;2023-04-29T10:56:38;39.00;;;36.20;;
51438;SDS011;38816;51.142;-0.974;2023-04-29T10:59:08;40.75;;;37.55;;
51438;SDS011;38816;51.142;-0.974;2023-04-29T11:01:40;40.35;;;36.92;;
51438;SDS011;38816;51.142;-0.974;2023-04-29T11:04:10;42.92;;;39.42;;
51438;SDS011;38816;51.142;-0.974;2023-04-29T11:06:38;41.00;;;37.55;;
51438;SDS011;38816;51.142;-0.974;2023-04-29T11:09:12;41.75;;;38.45;;
51438;SDS011;38816;51.142;-0.974;2023-04-29T11:14:08;39.17;;;35.92;;
51438;SDS011;38816;51.142;-0.974;2023-04-29T11:16:43;38.75;;;35.60;;
51438;SDS011;38816;51.142;-0.974;2023-04-29T11:19:13;40.47;;;37.28;;
51438;SDS011;38816;51.142;-0.974;2023-04-29T11:21:40;40.17;;;37.00;;
51438;SDS011;38816;51.142;-0.974;2023-04-29T11:24:06;39.45;;;36.28;;
51438;SDS011;38816;51.142;-0.974;2023-04-29T11:26:35;38.70;;;35.67;;
51438;SDS011;38816;51.142;-0.974;2023-04-29T11:29:00;38.90;;;35.63;;
51438;SDS011;38816;51.142;-0.974;2023-04-29T11:31:29;37.80;;;34.70;;
51438;SDS011;38816;51.142;-0.974;2023-04-29T11:33:55;39.40;;;36.30;;
51438;SDS011;38816;51.142;-0.974;2023-04-29T11:36:21;38.65;;;35.85;;
51438;SDS011;38816;51.142;-0.974;2023-04-29T11:38:49;38.25;;;35.13;;
51438;SDS011;38816;51.142;-0.974;2023-04-29T11:41:15;39.58;;;36.58;;
51438;SDS011;38816;51.142;-0.974;2023-04-29T11:43:40;39.10;;;36.10;;
51438;SDS011;38816;51.142;-0.974;2023-04-29T11:46:14;37.78;;;34.88;;
51438;SDS011;38816;51.142;-0.974;2023-04-29T11:48:46;40.45;;;37.38;;
51438;SDS011;38816;51.142;-0.974;2023-04-29T11:51:12;38.20;;;35.33;;
51438;SDS011;38816;51.142;-0.974;2023-04-29T11:53:39;42.50;;;39.40;;
51438;SDS011;38816;51.142;-0.974;2023-04-29T11:56:05;39.28;;;36.30;;
51438;SDS011;38816;51.142;-0.974;2023-04-29T11:58:30;40.80;;;37.75;;
51438;SDS011;38816;51.142;-0.974;2023-04-29T12:00:57;40.80;;;37.80;;
51438;SDS011;38816;51.142;-0.974;2023-04-29T12:03:23;39.38;;;36.33;;
51438;SDS011;38816;51.142;-0.974;2023-04-29T12:05:52;39.65;;;36.65;;
51438;SDS011;38816;51.142;-0.974;2023-04-29T12:08:21;39.97;;;36.92;;
51438;SDS011;38816;51.142;-0.974;2023-04-29T12:10:58;41.55;;;38.50;;
51438;SDS011;38816;51.142;-0.974;2023-04-29T12:13:27;38.15;;;35.30;;
51438;SDS011;38816;51.142;-0.974;2023-04-29T12:15:54;41.97;;;38.83;;
51438;SDS011;38816;51.142;-0.974;2023-04-29T12:18:20;40.60;;;37.65;;
51438;SDS011;38816;51.142;-0.974;2023-04-29T12:20:47;41.55;;;38.55;;
51438;SDS011;38816;51.142;-0.974;2023-04-29T12:23:19;38.88;;;36.03;;
51438;SDS011;38816;51.142;-0.974;2023-04-29T12:25:55;43.95;;;40.63;;
51438;SDS011;38816;51.142;-0.974;2023-04-29T12:28:22;38.53;;;35.78;;
51438;SDS011;38816;51.142;-0.974;2023-04-29T12:30:52;41.78;;;38.78;;
51438;SDS011;38816;51.142;-0.974;2023-04-29T12:33:22;44.13;;;41.03;;
51438;SDS011;38816;51.142;-0.974;2023-04-29T12:35:49;45.15;;;42.13;;
51438;SDS011;38816;51.142;-0.974;2023-04-29T12:38:19;44.90;;;41.72;;
51438;SDS011;38816;51.142;-0.974;2023-04-29T12:40:45;41.58;;;38.45;;
51438;SDS011;38816;51.142;-0.974;2023-04-29T12:43:11;41.92;;;38.92;;
51438;SDS011;38816;51.142;-0.974;2023-04-29T12:45:37;42.05;;;39.13;;
51438;SDS011;38816;51.142;-0.974;2023-04-29T12:48:03;42.42;;;39.30;;
51438;SDS011;38816;51.142;-0.974;2023-04-29T12:50:36;43.97;;;40.88;;
51438;SDS011;38816;51.142;-0.974;2023-04-29T12:53:03;44.60;;;41.30;;
51438;SDS011;38816;51.142;-0.974;2023-04-29T12:55:30;42.53;;;39.53;;
51438;SDS011;38816;51.142;-0.974;2023-04-29T12:57:58;42.72;;;39.75;;
51438;SDS011;38816;51.142;-0.974;2023-04-29T13:00:23;42.33;;;38.92;;
51438;SDS011;38816;51.142;-0.974;2023-04-29T13:02:49;41.30;;;38.40;;
51438;SDS011;38816;51.142;-0.974;2023-04-29T13:05:15;43.72;;;40.53;;
51438;SDS011;38816;51.142;-0.974;2023-04-29T13:07:40;42.35;;;39.25;;
51438;SDS011;38816;51.142;-0.974;2023-04-29T13:10:06;39.58;;;36.78;;
51438;SDS011;38816;51.142;-0.974;2023-04-29T13:12:32;42.25;;;39.35;;
51438;SDS011;38816;51.142;-0.974;2023-04-29T13:14:58;40.25;;;37.42;;
51438;SDS011;38816;51.142;-0.974;2023-04-29T13:17:23;40.35;;;37.55;;
51438;SDS011;38816;51.142;-0.974;2023-04-29T13:19:49;41.72;;;38.92;;
51438;SDS011;38816;51.142;-0.974;2023-04-29T13:22:14;41.05;;;38.15;;
51438;SDS011;38816;51.142;-0.974;2023-04-29T13:24:40;40.92;;;38.17;;
51438;SDS011;38816;51.142;-0.974;2023-04-29T13:27:05;39.88;;;37.17;;
51438;SDS011;38816;51.142;-0.974;2023-04-29T13:29:31;39.30;;;36.60;;
51438;SDS011;38816;51.142;-0.974;2023-04-29T13:31:56;41.58;;;38.67;;
51438;SDS011;38816;51.142;-0.974;2023-04-29T13:34:22;38.75;;;36.15;;
51438;SDS011;38816;51.142;-0.974;2023-04-29T13:36:47;41.42;;;38.60;;
51438;SDS011;38816;51.142;-0.974;2023-04-29T13:39:13;41.30;;;38.50;;
51438;SDS011;38816;51.142;-0.974;2023-04-29T13:41:38;46.22;;;42.83;;
51438;SDS011;38816;51.142;-0.974;2023-04-29T13:44:03;49.63;;;45.63;;
51438;SDS011;38816;51.142;-0.974;2023-04-29T13:46:29;48.63;;;44.72;;
51438;SDS011;38816;51.142;-0.974;2023-04-29T13:48:56;51.00;;;46.85;;
51438;SDS011;38816;51.142;-0.974;2023-04-29T13:51:22;45.90;;;42.17;;
51438;SDS011;38816;51.142;-0.974;2023-04-29T13:53:47;49.08;;;45.38;;
51438;SDS011;38816;51.142;-0.974;2023-04-29T13:56:12;46.63;;;42.80;;
51438;SDS011;38816;51.142;-0.974;2023-04-29T13:58:38;48.10;;;44.45;;
51438;SDS011;38816;51.142;-0.974;2023-04-29T14:01:05;47.90;;;44.28;;
51438;SDS011;38816;51.142;-0.974;2023-04-29T14:03:31;50.17;;;46.47;;
51438;SDS011;38816;51.142;-0.974;2023-04-29T14:05:56;49.63;;;45.83;;
51438;SDS011;38816;51.142;-0.974;2023-04-29T14:08:22;51.78;;;47.90;;
51438;SDS011;38816;51.142;-0.974;2023-04-29T14:10:47;48.40;;;44.70;;
51438;SDS011;38816;51.142;-0.974;2023-04-29T14:13:13;49.08;;;45.28;;
51438;SDS011;38816;51.142;-0.974;2023-04-29T14:15:38;50.53;;;46.70;;
51438;SDS011;38816;51.142;-0.974;2023-04-29T14:18:03;47.72;;;44.08;;
51438;SDS011;38816;51.142;-0.974;2023-04-29T14:20:31;49.50;;;45.88;;
51438;SDS011;38816;51.142;-0.974;2023-04-29T14:22:57;49.33;;;45.63;;
51438;SDS011;38816;51.142;-0.974;2023-04-29T14:25:22;47.80;;;44.10;;
51438;SDS011;38816;51.142;-0.974;2023-04-29T14:27:48;47.38;;;43.85;;
51438;SDS011;38816;51.142;-0.974;2023-04-29T14:30:13;47.92;;;44.15;;
51438;SDS011;38816;51.142;-0.974;2023-04-29T14:32:39;48.10;;;44.38;;